Time;durP1;ratioP1;P1;durP2;ratioP2;P2;SDS_P1;SDS_P2;PMS_P1;PMS_P2;Temp;Humidity;BMP_temperature;BMP_pressure;BME280_temperature;BME280_humidity;BME280_pressure;Samples;Min_cycle;Max_cycle;Signal;HPM_P1;HPM_P2
2021/06/12 00:01:39;;;;;;;3.17;1.90;;;18.20;98.00;;;;;;5072818;28;20511;-75
2021/06/12 00:04:06;;;;;;;1.93;1.43;;;18.20;98.00;;;;;;5070125;28;20453;-76
2021/06/12 00:06:34;;;;;;;1.80;1.40;;;18.20;98.00;;;;;;5072784;28;20971;-75
2021/06/12 00:09:00;;;;;;;1.63;1.63;;;18.20;98.00;;;;;;5070050;28;20517;-75
2021/06/12 00:11:27;;;;;;;2.10;1.50;;;18.20;98.00;;;;;;5072667;28;20453;-75
2021/06/12 00:13:53;;;;;;;2.33;1.60;;;18.20;98.00;;;;;;5069828;28;20954;-75
2021/06/12 00:16:20;;;;;;;1.53;1.47;;;18.20;98.00;;;;;;5072472;28;20453;-76
2021/06/12 00:18:47;;;;;;;2.70;1.73;;;18.10;98.00;;;;;;5069910;28;20453;-76
2021/06/12 00:21:13;;;;;;;2.23;1.50;;;17.90;98.00;;;;;;5072614;28;20453;-75
2021/06/12 00:23:41;;;;;;;2.40;1.90;;;17.70;98.00;;;;;;5069722;28;20492;-77
2021/06/12 00:26:08;;;;;;;3.33;2.03;;;17.60;98.00;;;;;;5072520;28;20457;-74
2021/06/12 00:28:37;;;;;;;2.90;2.07;;;17.60;98.00;;;;;;5069536;28;20599;-76
2021/06/12 00:31:03;;;;;;;1.50;1.50;;;17.50;98.00;;;;;;5072217;28;20455;-75
2021/06/12 00:33:30;;;;;;;3.40;2.10;;;17.50;98.00;;;;;;5069553;28;20983;-74
2021/06/12 00:35:57;;;;;;;3.27;1.80;;;17.50;98.00;;;;;;5072239;28;20456;-75
2021/06/12 00:38:23;;;;;;;2.53;1.90;;;17.50;98.00;;;;;;5069602;28;20460;-74
2021/06/12 00:40:51;;;;;;;1.50;1.37;;;17.50;98.00;;;;;;5072294;28;20801;-74
2021/06/12 00:43:18;;;;;;;2.53;1.70;;;17.40;98.00;;;;;;5070704;28;20497;-75
2021/06/12 00:45:46;;;;;;;1.73;1.47;;;17.50;98.00;;;;;;5072159;28;20456;-76
2021/06/12 00:48:14;;;;;;;3.77;1.73;;;17.50;98.00;;;;;;5071995;28;20463;-75
2021/06/12 00:50:42;;;;;;;1.63;1.27;;;17.50;98.00;;;;;;5069352;28;20484;-74
2021/06/12 00:53:09;;;;;;;1.63;1.60;;;17.50;98.00;;;;;;5071855;28;20449;-74
2021/06/12 00:55:36;;;;;;;2.43;1.40;;;17.40;98.00;;;;;;5069211;28;20467;-75
2021/06/12 00:58:07;;;;;;;1.47;1.33;;;17.40;98.00;;;;;;5071740;28;20465;-74
2021/06/12 01:00:34;;;;;;;1.57;1.53;;;17.40;98.00;;;;;;5069214;28;20947;-74
2021/06/12 01:03:01;;;;;;;2.23;1.80;;;17.60;98.00;;;;;;5071498;28;20456;-75
2021/06/12 01:05:27;;;;;;;2.47;1.87;;;17.60;98.00;;;;;;5068861;28;20480;-76
2021/06/12 01:07:54;;;;;;;1.93;1.50;;;17.60;98.00;;;;;;5071420;28;20493;-76
2021/06/12 01:10:20;;;;;;;4.60;1.70;;;17.50;98.00;;;;;;5068817;28;20704;-74
2021/06/12 01:12:58;;;;;;;3.00;1.67;;;17.40;98.00;;;;;;5071384;28;20818;-75
2021/06/12 01:15:50;;;;;;;2.40;1.40;;;17.30;98.00;;;;;;5068344;28;20460;-74
2021/06/12 01:18:20;;;;;;;1.60;1.50;;;17.20;98.00;;;;;;5071256;28;20540;-75
2021/06/12 01:21:00;;;;;;;2.50;1.57;;;17.20;98.00;;;;;;5070144;28;20695;-73
2021/06/12 01:24:14;;;;;;;3.03;1.40;;;17.20;98.00;;;;;;5067225;28;20513;-75
2021/06/12 01:26:49;;;;;;;3.60;1.93;;;17.10;98.00;;;;;;5070872;28;20552;-74
2021/06/12 01:29:28;;;;;;;1.30;1.30;;;17.20;98.00;;;;;;5068481;28;20484;-75
2021/06/12 01:31:58;;;;;;;5.03;1.77;;;17.30;98.00;;;;;;5070927;28;20455;-73
2021/06/12 01:34:27;;;;;;;1.47;1.30;;;17.20;98.00;;;;;;5068347;28;20985;-75
2021/06/12 01:36:54;;;;;;;4.10;2.27;;;17.20;98.00;;;;;;5070908;28;20457;-74
2021/06/12 01:39:23;;;;;;;4.07;1.93;;;17.20;98.00;;;;;;5068356;28;20499;-74
2021/06/12 01:41:52;;;;;;;1.73;1.50;;;17.20;98.00;;;;;;5070859;28;20530;-74
2021/06/12 01:44:20;;;;;;;1.90;1.40;;;16.90;98.00;;;;;;5068750;28;20461;-74
2021/06/12 01:46:47;;;;;;;2.73;1.93;;;16.80;98.00;;;;;;5070850;28;20510;-76
2021/06/12 01:49:16;;;;;;;3.20;2.00;;;16.80;98.00;;;;;;5068161;28;20530;-74
2021/06/12 01:51:43;;;;;;;2.27;1.63;;;16.60;98.00;;;;;;5070749;28;20997;-75
2021/06/12 01:54:11;;;;;;;5.57;2.20;;;16.50;98.00;;;;;;5068570;28;20950;-74
2021/06/12 01:56:40;;;;;;;1.87;1.50;;;16.50;98.00;;;;;;5070824;28;20464;-75
2021/06/12 01:59:06;;;;;;;2.37;1.50;;;16.50;98.00;;;;;;5068631;28;20861;-73
2021/06/12 02:01:35;;;;;;;4.10;2.30;;;16.60;98.00;;;;;;5070958;28;20977;-75
2021/06/12 02:04:03;;;;;;;3.27;2.10;;;16.50;98.00;;;;;;5068322;28;20503;-74
2021/06/12 02:06:31;;;;;;;2.60;1.80;;;16.60;98.00;;;;;;5070731;28;21032;-74
2021/06/12 02:08:58;;;;;;;3.20;1.93;;;16.70;98.00;;;;;;5067991;28;20509;-74
2021/06/12 02:11:26;;;;;;;2.43;1.50;;;16.60;98.00;;;;;;5070688;28;20588;-74
2021/06/12 02:13:53;;;;;;;2.90;1.97;;;16.50;98.00;;;;;;5068343;28;20461;-75
2021/06/12 02:16:23;;;;;;;1.77;1.40;;;16.50;98.00;;;;;;5070525;28;20461;-74
2021/06/12 02:18:51;;;;;;;2.33;1.80;;;16.30;98.00;;;;;;5068163;28;20946;-73
2021/06/12 02:21:20;;;;;;;1.77;1.63;;;16.30;98.00;;;;;;5070580;28;20445;-74
2021/06/12 02:23:49;;;;;;;1.50;1.50;;;16.40;98.00;;;;;;5067776;28;20480;-75
2021/06/12 02:26:18;;;;;;;1.97;1.87;;;16.40;98.00;;;;;;5070467;28;20530;-75
2021/06/12 02:28:44;;;;;;;3.30;1.97;;;16.50;98.00;;;;;;5071683;28;20998;-74
2021/06/12 02:31:17;;;;;;;2.33;1.90;;;16.40;98.00;;;;;;5074406;28;20468;-74
2021/06/12 02:33:46;;;;;;;3.43;2.33;;;16.20;98.00;;;;;;5071775;28;20460;-74
2021/06/12 02:36:13;;;;;;;4.33;1.87;;;16.10;98.00;;;;;;5074389;28;20448;-74
2021/06/12 02:38:40;;;;;;;3.40;1.70;;;16.00;98.00;;;;;;5071570;28;20453;-75
2021/06/12 02:41:08;;;;;;;1.50;1.20;;;16.00;98.00;;;;;;5074430;28;20556;-75
2021/06/12 02:43:35;;;;;;;1.80;1.50;;;16.20;98.00;;;;;;5071636;28;20459;-74
2021/06/12 02:46:02;;;;;;;2.80;2.00;;;16.20;98.00;;;;;;5074055;28;20481;-75
2021/06/12 02:48:33;;;;;;;1.77;1.30;;;16.20;98.00;;;;;;5073826;28;20472;-73
2021/06/12 02:51:00;;;;;;;2.03;1.67;;;16.30;98.00;;;;;;5073963;28;20480;-74
2021/06/12 02:53:31;;;;;;;1.93;1.40;;;16.30;98.00;;;;;;5073993;28;20453;-74
2021/06/12 02:56:01;;;;;;;3.10;1.93;;;16.50;98.00;;;;;;5073952;28;20506;-74
2021/06/12 02:58:30;;;;;;;2.47;2.00;;;16.50;98.00;;;;;;5072902;28;20456;-73
2021/06/12 03:00:57;;;;;;;2.07;1.70;;;16.50;98.00;;;;;;5073338;28;20506;-74
2021/06/12 03:03:27;;;;;;;1.87;1.50;;;16.50;98.00;;;;;;5073687;28;20453;-74
2021/06/12 03:05:56;;;;;;;2.83;1.87;;;16.50;98.00;;;;;;5070896;28;20456;-74
2021/06/12 03:08:29;;;;;;;2.23;1.80;;;16.40;98.00;;;;;;5073852;28;20936;-75
2021/06/12 03:10:57;;;;;;;2.67;1.50;;;16.40;98.00;;;;;;5071923;28;20484;-74
2021/06/12 03:13:27;;;;;;;1.83;1.40;;;16.40;98.00;;;;;;5073626;28;20481;-75
2021/06/12 03:15:56;;;;;;;4.13;1.83;;;16.40;98.00;;;;;;5071090;28;20954;-73
2021/06/12 03:18:24;;;;;;;1.70;1.70;;;16.20;98.00;;;;;;5073457;28;20840;-75
2021/06/12 03:20:59;;;;;;;1.93;1.83;;;16.20;98.00;;;;;;5071290;28;20468;-73
2021/06/12 03:23:28;;;;;;;2.00;1.77;;;16.10;98.00;;;;;;5073325;28;20522;-73
2021/06/12 03:25:58;;;;;;;2.93;1.80;;;16.10;98.00;;;;;;5069880;28;20551;-74
2021/06/12 03:28:25;;;;;;;2.93;1.93;;;16.10;98.00;;;;;;5072414;28;20547;-75
2021/06/12 03:30:56;;;;;;;1.97;1.67;;;16.10;98.00;;;;;;5069563;28;20484;-74
2021/06/12 03:33:23;;;;;;;3.60;2.30;;;15.90;98.00;;;;;;5071132;28;20917;-74
2021/06/12 03:35:52;;;;;;;2.57;1.90;;;15.90;98.00;;;;;;5069849;28;20514;-73
2021/06/12 03:38:20;;;;;;;2.07;1.40;;;15.90;98.00;;;;;;5072011;28;20453;-73
2021/06/12 03:40:47;;;;;;;2.90;1.60;;;16.00;98.00;;;;;;5069701;28;20456;-74
2021/06/12 03:43:15;;;;;;;2.70;1.57;;;15.90;98.00;;;;;;5072187;28;21005;-73
2021/06/12 03:45:42;;;;;;;1.60;1.37;;;15.80;98.00;;;;;;5069520;28;20460;-74
2021/06/12 03:48:13;;;;;;;2.57;1.73;;;15.80;98.00;;;;;;5072196;28;20445;-73
2021/06/12 03:50:41;;;;;;;1.77;1.70;;;15.80;98.00;;;;;;5069318;28;21023;-73
2021/06/12 03:53:08;;;;;;;2.60;1.63;;;16.00;98.00;;;;;;5072108;28;20836;-73
2021/06/12 03:55:35;;;;;;;2.37;1.83;;;16.00;98.00;;;;;;5069380;28;20461;-74
2021/06/12 03:58:01;;;;;;;3.30;1.87;;;16.00;98.00;;;;;;5071629;28;20461;-73
2021/06/12 04:00:30;;;;;;;2.90;2.03;;;16.00;98.00;;;;;;5069315;28;20560;-76
2021/06/12 04:02:57;;;;;;;2.83;1.73;;;15.80;98.00;;;;;;5071796;28;20464;-74
2021/06/12 04:05:30;;;;;;;1.50;1.40;;;15.70;98.00;;;;;;5069128;28;20468;-73
2021/06/12 04:07:57;;;;;;;3.03;2.10;;;15.60;98.00;;;;;;5071728;28;20461;-74
2021/06/12 04:10:24;;;;;;;3.27;2.40;;;15.60;98.00;;;;;;5069195;28;20484;-74
2021/06/12 04:12:50;;;;;;;2.03;1.90;;;15.80;98.00;;;;;;5070326;28;20457;-76
2021/06/12 04:15:17;;;;;;;1.90;1.37;;;16.00;98.00;;;;;;5069085;28;20461;-73
2021/06/12 04:17:45;;;;;;;3.50;2.37;;;16.00;98.00;;;;;;5071421;28;20453;-74
2021/06/12 04:20:13;;;;;;;1.73;1.67;;;16.10;98.00;;;;;;5068914;28;20812;-73
2021/06/12 04:22:41;;;;;;;1.63;1.37;;;16.10;98.00;;;;;;5071218;28;20535;-73
2021/06/12 04:25:09;;;;;;;4.60;2.10;;;16.20;98.00;;;;;;5064677;28;109133;-74
2021/06/12 04:27:36;;;;;;;2.07;1.53;;;16.30;98.00;;;;;;5072323;28;20453;-74
2021/06/12 04:30:03;;;;;;;1.90;1.57;;;16.20;98.00;;;;;;5069922;28;20847;-74
2021/06/12 04:32:32;;;;;;;2.20;2.03;;;16.30;98.00;;;;;;5072164;28;20453;-74
2021/06/12 04:34:59;;;;;;;1.50;1.30;;;16.40;98.00;;;;;;5069801;28;20460;-74
2021/06/12 04:37:26;;;;;;;2.17;1.40;;;16.50;98.00;;;;;;5072016;28;20538;-74
2021/06/12 04:39:54;;;;;;;1.93;1.40;;;16.60;98.00;;;;;;5069609;28;20826;-73
2021/06/12 04:42:20;;;;;;;1.67;1.50;;;16.60;98.00;;;;;;5072160;28;20491;-75
2021/06/12 04:44:47;;;;;;;4.17;2.03;;;16.70;98.00;;;;;;5069439;28;20453;-74
2021/06/12 04:47:13;;;;;;;2.43;1.73;;;16.70;98.00;;;;;;5073394;28;20456;-75
2021/06/12 04:49:40;;;;;;;5.07;1.70;;;16.80;98.00;;;;;;5069629;28;20520;-73
2021/06/12 04:52:07;;;;;;;3.23;2.13;;;17.00;98.00;;;;;;5072472;28;20453;-73
2021/06/12 04:54:40;;;;;;;2.00;1.73;;;17.10;98.00;;;;;;5071013;28;20865;-74
2021/06/12 04:57:08;;;;;;;1.77;1.53;;;17.10;98.00;;;;;;5072675;28;20473;-73
2021/06/12 04:59:35;;;;;;;1.77;1.47;;;17.10;98.00;;;;;;5069438;28;20449;-74
2021/06/12 05:02:02;;;;;;;2.90;1.60;;;17.00;98.00;;;;;;5071713;28;20472;-75
2021/06/12 05:04:31;;;;;;;5.10;2.97;;;17.10;98.00;;;;;;5069172;28;20488;-74
2021/06/12 05:06:58;;;;;;;2.07;1.93;;;17.10;98.00;;;;;;5071591;28;20804;-73
2021/06/12 05:09:25;;;;;;;2.93;1.80;;;17.20;98.00;;;;;;5068596;28;20523;-74
2021/06/12 05:11:51;;;;;;;3.93;1.93;;;17.30;98.00;;;;;;5071429;28;20456;-74
2021/06/12 05:14:20;;;;;;;1.90;1.60;;;17.30;98.00;;;;;;5068912;28;20456;-73
2021/06/12 05:16:46;;;;;;;1.60;1.40;;;17.10;98.00;;;;;;5071190;28;20550;-74
2021/06/12 05:19:13;;;;;;;2.20;1.37;;;17.10;98.00;;;;;;5068841;28;20452;-74
2021/06/12 05:21:40;;;;;;;1.87;1.80;;;17.20;98.00;;;;;;5071324;28;20485;-74
2021/06/12 05:24:07;;;;;;;3.00;1.73;;;17.20;98.00;;;;;;5068526;28;20462;-76
2021/06/12 05:26:34;;;;;;;2.00;1.50;;;17.30;98.00;;;;;;5071405;28;20456;-75
2021/06/12 05:29:01;;;;;;;2.90;1.87;;;17.40;98.00;;;;;;5068336;28;20492;-76
2021/06/12 05:31:29;;;;;;;3.53;1.90;;;17.40;98.00;;;;;;5071284;28;20479;-73
2021/06/12 05:33:55;;;;;;;2.07;1.70;;;17.50;98.00;;;;;;5068461;28;20771;-74
2021/06/12 05:36:22;;;;;;;1.83;1.50;;;17.50;98.00;;;;;;5071170;28;20911;-74
2021/06/12 05:42:11;;;;;;;2.27;1.53;;;17.70;98.00;;;;;;5071036;28;20409;-74
2021/06/12 05:44:37;;;;;;;2.60;1.97;;;17.80;98.00;;;;;;5068302;28;21036;-76
2021/06/12 05:47:05;;;;;;;2.13;1.63;;;17.90;98.00;;;;;;5070940;28;20519;-75
2021/06/12 05:49:31;;;;;;;3.50;1.93;;;17.90;98.00;;;;;;5068092;28;20513;-74
2021/06/12 05:51:58;;;;;;;2.40;1.60;;;17.90;98.00;;;;;;5070999;28;20947;-74
2021/06/12 05:54:24;;;;;;;1.40;1.30;;;17.90;98.00;;;;;;5068242;28;20506;-73
2021/06/12 05:56:52;;;;;;;2.47;2.20;;;18.10;98.00;;;;;;5070788;28;20445;-74
2021/06/12 05:59:18;;;;;;;1.70;1.40;;;18.20;98.00;;;;;;5068318;28;20822;-73
2021/06/12 06:01:44;;;;;;;2.97;2.00;;;18.30;98.00;;;;;;5070776;28;20858;-72
2021/06/12 06:04:12;;;;;;;1.53;1.50;;;18.40;98.00;;;;;;5068105;28;21151;-72
2021/06/12 06:06:39;;;;;;;3.40;2.00;;;18.50;98.00;;;;;;5070950;28;20975;-71
2021/06/12 06:09:05;;;;;;;3.40;1.80;;;18.70;98.00;;;;;;5068140;28;20802;-72
2021/06/12 06:11:32;;;;;;;2.90;2.23;;;18.70;98.00;;;;;;5070802;28;20461;-72
2021/06/12 06:13:58;;;;;;;1.40;1.40;;;18.80;98.00;;;;;;5068324;28;20496;-73
2021/06/12 06:16:25;;;;;;;3.07;2.20;;;19.00;98.00;;;;;;5070800;28;20457;-72
2021/06/12 06:18:51;;;;;;;2.00;1.60;;;19.10;98.00;;;;;;5068968;28;20939;-71
2021/06/12 06:21:19;;;;;;;1.70;1.43;;;19.10;98.00;;;;;;5070524;28;20467;-73
2021/06/12 06:23:46;;;;;;;2.80;1.53;;;19.20;98.00;;;;;;5070346;28;20472;-71
2021/06/12 06:26:12;;;;;;;2.37;1.90;;;19.20;98.00;;;;;;5068231;28;20534;-72
2021/06/12 06:28:39;;;;;;;2.43;2.03;;;19.30;98.00;;;;;;5070389;28;20468;-73
2021/06/12 06:31:05;;;;;;;1.60;1.60;;;19.40;98.00;;;;;;5065899;28;20492;-72
2021/06/12 06:33:32;;;;;;;2.90;1.83;;;19.30;98.00;;;;;;5069309;28;20468;-71
2021/06/12 06:35:58;;;;;;;3.20;2.03;;;19.40;98.00;;;;;;5067867;28;20500;-72
2021/06/12 06:38:26;;;;;;;3.10;1.87;;;19.50;98.00;;;;;;5070454;28;20802;-73
2021/06/12 06:40:53;;;;;;;2.73;1.90;;;19.60;98.00;;;;;;5067786;28;20511;-73
2021/06/12 06:43:20;;;;;;;2.53;1.80;;;19.80;98.00;;;;;;5070424;28;20860;-72
2021/06/12 06:45:46;;;;;;;3.20;2.00;;;19.90;98.00;;;;;;5067843;28;20459;-72
2021/06/12 06:48:16;;;;;;;2.87;1.90;;;20.10;98.00;;;;;;5069075;28;20948;-72
2021/06/12 06:50:43;;;;;;;1.80;1.40;;;20.00;98.00;;;;;;5065940;28;20484;-71
2021/06/12 06:53:09;;;;;;;1.67;1.40;;;20.10;98.00;;;;;;5069731;28;20453;-71
2021/06/12 06:55:38;;;;;;;3.40;2.20;;;20.10;98.00;;;;;;5067200;28;20826;-71
2021/06/12 06:58:05;;;;;;;1.90;1.63;;;20.20;98.00;;;;;;5070191;28;20483;-72
2021/06/12 07:00:31;;;;;;;3.47;2.00;;;20.30;98.00;;;;;;5067506;28;20496;-71
2021/06/12 07:02:59;;;;;;;2.33;1.70;;;20.60;98.00;;;;;;5069992;28;20572;-73
2021/06/12 07:05:35;;;;;;;2.07;1.60;;;20.80;98.00;;;;;;5066801;28;20457;-72
2021/06/12 07:08:01;;;;;;;2.70;1.67;;;21.00;98.00;;;;;;5068723;28;20733;-70
2021/06/12 07:10:30;;;;;;;4.07;2.57;;;21.30;98.00;;;;;;5067122;28;20519;-71
2021/06/12 07:13:02;;;;;;;2.40;2.13;;;21.40;98.00;;;;;;5070818;28;20672;-70
2021/06/12 07:15:29;;;;;;;5.67;2.40;;;21.50;98.00;;;;;;5071068;28;20638;-71
2021/06/12 07:17:55;;;;;;;1.90;1.80;;;21.50;98.00;;;;;;5073591;28;20511;-72
2021/06/12 07:20:26;;;;;;;4.43;1.87;;;21.50;98.00;;;;;;5070870;28;20492;-72
2021/06/12 07:22:53;;;;;;;2.67;2.03;;;21.50;98.00;;;;;;5073917;28;20461;-71
2021/06/12 07:25:20;;;;;;;2.20;1.90;;;21.60;98.00;;;;;;5069839;28;21039;-72
2021/06/12 07:27:46;;;;;;;2.87;1.97;;;21.70;98.00;;;;;;5072456;28;20506;-73
2021/06/12 07:30:18;;;;;;;2.47;1.73;;;21.90;98.00;;;;;;5071142;28;20959;-72
2021/06/12 07:32:44;;;;;;;3.03;2.37;;;21.90;98.00;;;;;;5073453;28;20468;-72
2021/06/12 07:35:12;;;;;;;2.30;2.07;;;22.00;98.00;;;;;;5070517;28;20497;-71
2021/06/12 07:37:38;;;;;;;1.83;1.73;;;22.10;98.00;;;;;;5072937;28;20449;-73
2021/06/12 07:40:06;;;;;;;1.67;1.60;;;22.30;98.00;;;;;;5070603;28;20510;-73
2021/06/12 07:42:33;;;;;;;2.43;2.30;;;22.50;98.00;;;;;;5073264;28;20492;-72
2021/06/12 07:44:59;;;;;;;3.23;2.00;;;22.50;98.00;;;;;;5070432;28;20544;-72
2021/06/12 07:47:28;;;;;;;3.37;2.10;;;22.50;98.00;;;;;;5073193;28;20514;-72
2021/06/12 07:49:55;;;;;;;2.63;2.30;;;22.60;98.00;;;;;;5070651;28;20846;-72
2021/06/12 07:52:21;;;;;;;1.93;1.50;;;22.70;98.00;;;;;;5073102;28;20453;-72
2021/06/12 07:54:48;;;;;;;1.93;1.83;;;22.70;98.00;;;;;;5070522;28;20839;-72
2021/06/12 07:57:14;;;;;;;3.30;2.00;;;22.90;98.00;;;;;;5072960;28;20453;-72
2021/06/12 07:59:41;;;;;;;2.63;2.27;;;23.00;98.00;;;;;;5070520;28;20978;-73
2021/06/12 08:02:07;;;;;;;3.03;2.27;;;23.20;98.00;;;;;;5072916;28;20457;-73
2021/06/12 08:04:35;;;;;;;3.17;2.07;;;23.40;98.00;;;;;;5070347;28;20472;-72
2021/06/12 08:07:02;;;;;;;1.70;1.70;;;23.40;98.00;;;;;;5072585;28;20460;-72
2021/06/12 08:09:28;;;;;;;1.70;1.50;;;23.40;98.00;;;;;;5070341;28;20503;-72
2021/06/12 08:11:55;;;;;;;3.50;2.20;;;23.50;98.00;;;;;;5072489;28;20456;-72
2021/06/12 08:14:21;;;;;;;2.77;2.13;;;23.60;98.00;;;;;;5070220;28;20464;-73
2021/06/12 08:16:48;;;;;;;2.63;1.90;;;23.70;98.00;;;;;;5072485;28;20457;-72
2021/06/12 08:19:14;;;;;;;2.70;1.97;;;23.80;98.00;;;;;;5069948;28;20453;-72
2021/06/12 08:21:43;;;;;;;3.20;2.50;;;23.80;98.00;;;;;;5072430;28;20468;-72
2021/06/12 08:24:10;;;;;;;2.17;2.03;;;23.90;98.00;;;;;;5068605;28;20461;-72
2021/06/12 08:26:37;;;;;;;3.27;2.13;;;23.80;98.00;;;;;;5072252;28;20457;-71
2021/06/12 08:29:04;;;;;;;3.10;1.87;;;23.90;98.00;;;;;;5071069;28;20828;-75
2021/06/12 08:31:34;;;;;;;2.20;1.83;;;24.10;98.00;;;;;;5072174;28;20542;-72
2021/06/12 08:34:03;;;;;;;2.67;2.17;;;24.30;98.00;;;;;;5072219;28;20453;-72
2021/06/12 08:36:30;;;;;;;3.47;2.17;;;24.30;97.60;;;;;;5070171;28;20489;-73
2021/06/12 08:38:58;;;;;;;2.93;1.93;;;24.40;98.00;;;;;;5072043;28;20475;-72
2021/06/12 08:41:25;;;;;;;3.40;2.20;;;24.50;98.00;;;;;;5068347;28;20485;-73
2021/06/12 08:43:58;;;;;;;2.57;1.97;;;24.60;98.00;;;;;;5071984;28;20453;-73
2021/06/12 08:46:25;;;;;;;3.60;1.93;;;24.70;98.00;;;;;;5069349;28;20462;-72
2021/06/12 08:48:52;;;;;;;1.93;1.70;;;24.70;98.00;;;;;;5072048;28;20821;-72
2021/06/12 08:51:19;;;;;;;2.50;2.00;;;24.90;96.90;;;;;;5069201;28;20960;-72
2021/06/12 08:53:47;;;;;;;3.13;1.90;;;25.00;97.20;;;;;;5071852;28;20453;-72
2021/06/12 08:56:15;;;;;;;1.97;1.87;;;25.10;95.80;;;;;;5069403;28;20449;-72
2021/06/12 08:58:41;;;;;;;2.47;1.80;;;25.10;95.00;;;;;;5072010;28;21001;-72
2021/06/12 09:01:09;;;;;;;2.67;1.77;;;25.20;96.40;;;;;;5069577;28;20453;-72
2021/06/12 09:03:41;;;;;;;2.33;2.07;;;25.30;95.80;;;;;;5072088;28;20453;-73
2021/06/12 09:06:08;;;;;;;2.60;1.97;;;25.30;94.70;;;;;;5069087;28;20457;-72
2021/06/12 09:08:38;;;;;;;2.60;1.70;;;25.30;95.60;;;;;;5071652;28;20445;-72
2021/06/12 09:11:06;;;;;;;4.13;2.43;;;25.40;95.00;;;;;;5067901;28;20484;-73
2021/06/12 09:13:45;;;;;;;2.90;2.00;;;25.50;94.30;;;;;;5071564;28;20819;-73
2021/06/12 09:16:24;;;;;;;2.13;1.50;;;25.50;94.40;;;;;;5068887;28;20457;-72
2021/06/12 09:18:51;;;;;;;2.97;1.93;;;25.60;93.20;;;;;;5071445;28;20556;-73
2021/06/12 09:21:29;;;;;;;2.43;1.87;;;25.50;94.20;;;;;;5068636;28;20996;-72
2021/06/12 09:23:59;;;;;;;2.00;1.80;;;25.50;93.50;;;;;;5071325;28;20487;-73
2021/06/12 09:26:44;;;;;;;2.93;1.70;;;25.70;95.40;;;;;;5068652;28;20822;-73
2021/06/12 09:29:17;;;;;;;2.60;2.30;;;25.90;97.50;;;;;;5069819;28;20453;-73
2021/06/12 09:31:46;;;;;;;2.70;1.93;;;26.10;94.80;;;;;;5071171;28;20481;-74
2021/06/12 09:34:15;;;;;;;2.53;2.00;;;26.20;94.00;;;;;;5050624;28;20457;-74
2021/06/12 09:36:43;;;;;;;2.57;1.90;;;26.20;93.30;;;;;;5070857;28;20848;-72
2021/06/12 09:39:14;;;;;;;1.70;1.60;;;26.20;94.60;;;;;;5070398;28;20489;-73
2021/06/12 09:41:43;;;;;;;2.73;1.80;;;26.20;93.00;;;;;;5071010;28;20989;-73
2021/06/12 09:44:12;;;;;;;2.07;1.70;;;26.30;95.00;;;;;;5070350;28;20453;-74
2021/06/12 09:46:43;;;;;;;2.13;1.90;;;26.40;94.60;;;;;;5070901;28;20827;-72
2021/06/12 09:49:11;;;;;;;1.70;1.40;;;26.50;93.30;;;;;;5070355;28;20809;-73
2021/06/12 09:51:58;;;;;;;2.73;2.03;;;26.60;92.00;;;;;;5069780;28;20538;-73
2021/06/12 09:54:34;;;;;;;2.10;1.80;;;26.50;92.00;;;;;;5068267;28;20488;-73
2021/06/12 09:57:01;;;;;;;1.60;1.40;;;26.30;92.90;;;;;;5071023;28;20456;-73
2021/06/12 09:59:37;;;;;;;1.73;1.73;;;26.50;95.60;;;;;;5068468;28;20856;-72
2021/06/12 10:02:03;;;;;;;1.63;1.40;;;26.70;92.80;;;;;;5070932;28;20484;-73
2021/06/12 10:04:30;;;;;;;1.70;1.70;;;26.80;91.10;;;;;;5068155;28;20496;-73
2021/06/12 10:06:57;;;;;;;2.13;1.40;;;26.60;90.50;;;;;;5070825;28;20998;-73
2021/06/12 10:09:24;;;;;;;2.03;1.50;;;26.20;90.30;;;;;;5068608;28;20488;-73
2021/06/12 10:11:53;;;;;;;1.67;1.63;;;26.10;91.80;;;;;;5070895;28;21018;-74
2021/06/12 10:14:19;;;;;;;1.67;1.43;;;26.00;89.50;;;;;;5068677;28;20507;-73
2021/06/12 10:16:49;;;;;;;1.70;1.30;;;26.10;90.80;;;;;;5071228;28;20456;-72
2021/06/12 10:19:17;;;;;;;1.63;1.40;;;26.30;91.30;;;;;;5069599;28;20445;-73
2021/06/12 10:21:44;;;;;;;1.60;1.60;;;26.50;93.40;;;;;;5071017;28;20851;-73
2021/06/12 10:24:12;;;;;;;1.60;1.40;;;26.60;91.60;;;;;;5070943;28;20500;-72
2021/06/12 10:26:39;;;;;;;1.60;1.30;;;26.40;91.00;;;;;;5067318;28;20953;-72
2021/06/12 10:29:06;;;;;;;1.87;1.27;;;26.50;92.60;;;;;;5070867;28;20465;-73
2021/06/12 10:31:35;;;;;;;1.30;1.20;;;26.60;89.60;;;;;;5068080;28;20537;-73
2021/06/12 10:34:03;;;;;;;1.70;1.50;;;26.60;89.50;;;;;;5069285;28;20457;-73
2021/06/12 10:36:32;;;;;;;1.77;1.70;;;26.60;90.50;;;;;;5068165;28;20482;-72
2021/06/12 10:39:00;;;;;;;1.50;1.30;;;26.70;89.60;;;;;;5070551;28;20502;-73
2021/06/12 10:41:28;;;;;;;1.60;1.40;;;27.00;91.10;;;;;;5068131;28;20452;-73
2021/06/12 10:43:57;;;;;;;1.50;1.33;;;27.00;89.80;;;;;;5069220;28;20465;-73
2021/06/12 10:46:25;;;;;;;1.60;1.30;;;27.20;88.70;;;;;;5068182;28;20467;-73
2021/06/12 10:48:53;;;;;;;1.40;1.30;;;27.40;87.30;;;;;;5073015;28;20461;-74
2021/06/12 10:51:46;;;;;;;1.73;1.50;;;27.60;88.10;;;;;;5072051;28;20485;-73
2021/06/12 10:54:19;;;;;;;2.13;1.57;;;27.60;85.50;;;;;;5074401;28;20555;-72
2021/06/12 10:56:48;;;;;;;1.50;1.40;;;27.70;87.40;;;;;;5074386;28;20448;-73
2021/06/12 10:59:41;;;;;;;1.80;1.60;;;28.00;89.20;;;;;;5074409;28;21012;-73
2021/06/12 11:02:11;;;;;;;1.93;1.47;;;28.20;87.20;;;;;;5074815;28;20768;-73
2021/06/12 11:04:47;;;;;;;1.83;1.50;;;28.30;87.00;;;;;;5071921;28;20460;-73
2021/06/12 11:07:25;;;;;;;1.80;1.40;;;28.40;85.10;;;;;;5074848;28;20872;-73
2021/06/12 11:09:54;;;;;;;1.60;1.50;;;28.40;86.80;;;;;;5072140;28;20456;-73
2021/06/12 11:12:35;;;;;;;2.10;1.60;;;28.40;85.30;;;;;;5074694;28;20463;-73
2021/06/12 11:15:06;;;;;;;1.50;1.40;;;28.60;85.20;;;;;;5071862;28;20821;-73
2021/06/12 11:17:33;;;;;;;1.90;1.50;;;28.80;84.40;;;;;;5074356;28;20562;-73
2021/06/12 11:20:26;;;;;;;2.60;1.80;;;29.00;84.10;;;;;;5071702;28;20488;-72
2021/06/12 11:23:05;;;;;;;1.60;1.50;;;29.00;84.40;;;;;;5074081;28;20456;-72
2021/06/12 11:25:57;;;;;;;1.40;1.30;;;29.20;84.80;;;;;;5071898;28;20509;-74
2021/06/12 11:28:30;;;;;;;1.87;1.50;;;29.40;82.80;;;;;;5074801;28;20457;-74
2021/06/12 11:31:24;;;;;;;1.87;1.50;;;29.50;81.50;;;;;;5071418;28;20484;-74
2021/06/12 11:34:10;;;;;;;1.80;1.60;;;29.30;83.00;;;;;;5074461;28;20468;-75
2021/06/12 11:36:37;;;;;;;2.10;2.00;;;29.50;81.60;;;;;;5071374;28;20510;-73
2021/06/12 11:39:05;;;;;;;1.93;1.43;;;29.50;82.30;;;;;;5074301;28;20453;-73
2021/06/12 11:41:31;;;;;;;1.70;1.60;;;29.50;82.50;;;;;;5071480;28;20461;-75
2021/06/12 11:44:00;;;;;;;13.73;1.60;;;29.50;83.00;;;;;;5073874;28;20985;-72
2021/06/12 11:46:32;;;;;;;1.63;1.47;;;29.80;81.90;;;;;;5071048;28;20518;-74
2021/06/12 11:48:59;;;;;;;3.07;1.90;;;30.10;79.90;;;;;;5073846;28;20459;-74
2021/06/12 11:51:30;;;;;;;1.73;1.70;;;30.10;82.20;;;;;;5071254;28;20480;-73
2021/06/12 11:54:07;;;;;;;1.40;1.33;;;29.80;81.70;;;;;;5073776;28;20464;-73
2021/06/12 11:56:35;;;;;;;1.97;1.87;;;29.70;80.90;;;;;;5070924;28;20545;-71
2021/06/12 11:59:04;;;;;;;2.00;1.77;;;29.80;81.70;;;;;;5073422;28;21056;-75
2021/06/12 12:01:39;;;;;;;2.60;1.77;;;29.40;80.60;;;;;;5071251;28;20468;-73
2021/06/12 12:04:10;;;;;;;3.60;2.27;;;29.30;81.40;;;;;;5073517;28;20521;-73
2021/06/12 12:06:38;;;;;;;1.77;1.60;;;29.40;83.00;;;;;;5070996;28;20461;-74
2021/06/12 12:09:06;;;;;;;1.60;1.40;;;29.70;81.30;;;;;;5073496;28;20449;-71
2021/06/12 12:11:34;;;;;;;1.93;1.67;;;30.10;80.90;;;;;;5069418;28;20488;-73
2021/06/12 12:14:03;;;;;;;2.13;1.60;;;30.10;78.20;;;;;;5073290;28;20970;-71
2021/06/12 12:16:30;;;;;;;1.30;1.30;;;30.10;77.40;;;;;;5070905;28;20449;-72
2021/06/12 12:18:58;;;;;;;2.03;1.60;;;30.00;77.10;;;;;;5073547;28;20459;-73
2021/06/12 12:21:33;;;;;;;2.10;1.70;;;30.00;77.90;;;;;;5070708;28;20923;-72
2021/06/12 12:24:00;;;;;;;1.67;1.63;;;29.90;78.50;;;;;;5073198;28;20476;-72
2021/06/12 12:26:28;;;;;;;1.80;1.60;;;29.90;78.70;;;;;;5069941;28;20476;-73
2021/06/12 12:28:56;;;;;;;1.70;1.53;;;29.90;78.10;;;;;;5072453;28;20468;-74
2021/06/12 12:31:23;;;;;;;2.10;1.60;;;30.00;78.80;;;;;;5069268;28;20515;-72
2021/06/12 12:33:51;;;;;;;1.73;1.40;;;30.10;77.10;;;;;;5072280;28;20449;-74
2021/06/12 12:36:18;;;;;;;1.80;1.40;;;30.10;77.80;;;;;;5068256;28;20472;-72
2021/06/12 12:38:55;;;;;;;1.50;1.30;;;30.20;78.00;;;;;;5072792;28;20449;-72
2021/06/12 12:41:21;;;;;;;1.50;1.40;;;30.30;77.10;;;;;;5069476;28;20444;-72
2021/06/12 12:44:03;;;;;;;1.90;1.57;;;29.80;78.00;;;;;;5072718;28;20604;-73
2021/06/12 12:46:30;;;;;;;1.40;1.30;;;29.70;78.30;;;;;;5071170;28;20939;-74
2021/06/12 12:48:57;;;;;;;1.60;1.60;;;29.90;78.10;;;;;;5072630;28;20484;-71
2021/06/12 12:51:25;;;;;;;1.40;1.40;;;30.10;77.40;;;;;;5069387;28;21277;-73
2021/06/12 12:53:51;;;;;;;2.47;1.50;;;30.10;76.40;;;;;;5072552;28;20822;-73
2021/06/12 12:56:19;;;;;;;1.53;1.40;;;29.80;75.40;;;;;;5069974;28;20915;-72
2021/06/12 12:58:51;;;;;;;2.03;1.40;;;29.50;76.10;;;;;;5072411;28;20550;-74
2021/06/12 13:01:18;;;;;;;1.40;1.37;;;29.40;77.10;;;;;;5069930;28;20602;-75